Time;durP1;ratioP1;P1;durP2;ratioP2;P2;SDS_P1;SDS_P2;PMS_P1;PMS_P2;Temp;Humidity;BMP_temperature;BMP_pressure;BME280_temperature;BME280_humidity;BME280_pressure;Samples;Min_cycle;Max_cycle;Signal;HPM_P1;HPM_P2
2022/09/08 00:02:02;;;;;;;10.47;9.33;;;17.20;99.90;;;;;;5054195;28;20210;-56
2022/09/08 00:04:29;;;;;;;9.20;8.20;;;17.20;99.90;;;;;;5053913;28;20225;-56
2022/09/08 00:06:57;;;;;;;9.80;8.43;;;17.20;99.90;;;;;;5053286;28;20214;-55
2022/09/08 00:09:24;;;;;;;8.53;7.60;;;17.10;99.90;;;;;;5053676;28;20579;-54
2022/09/08 00:11:51;;;;;;;8.37;7.03;;;17.10;99.90;;;;;;5053770;28;20257;-57
2022/09/08 00:14:19;;;;;;;9.73;7.00;;;17.10;99.90;;;;;;5053584;28;20308;-57
2022/09/08 00:16:45;;;;;;;7.80;7.00;;;17.10;99.90;;;;;;5053632;28;20255;-57
2022/09/08 00:19:12;;;;;;;7.23;6.53;;;17.10;95.90;;;;;;5053658;28;20210;-54
2022/09/08 00:21:39;;;;;;;9.93;7.47;;;17.10;95.80;;;;;;5053589;28;20233;-56
2022/09/08 00:24:07;;;;;;;7.53;6.83;;;17.10;98.20;;;;;;5053269;28;20613;-56
2022/09/08 00:26:34;;;;;;;7.43;6.63;;;17.10;96.90;;;;;;5053448;28;20258;-56
2022/09/08 00:29:01;;;;;;;6.70;5.83;;;17.10;96.10;;;;;;5053350;28;20206;-55
2022/09/08 00:31:27;;;;;;;9.10;6.33;;;17.10;92.30;;;;;;5053510;28;20202;-55
2022/09/08 00:33:54;;;;;;;6.83;5.63;;;17.10;82.80;;;;;;5053456;28;20283;-56
2022/09/08 00:36:21;;;;;;;6.07;5.47;;;17.10;55.90;;;;;;5053171;28;20210;-56
2022/09/08 00:38:51;;;;;;;6.60;5.33;;;17.10;40.80;;;;;;5053053;28;20259;-53
2022/09/08 00:41:20;;;;;;;6.63;5.07;;;17.10;31.80;;;;;;5053482;28;20287;-56
2022/09/08 00:43:48;;;;;;;9.67;4.57;;;17.20;17.60;;;;;;5052977;28;20210;-54
2022/09/08 00:46:22;;;;;;;4.67;4.27;;;17.20;7.00;;;;;;5052837;28;20579;-54
2022/09/08 00:48:53;;;;;;;7.17;4.80;;;17.20;1.00;;;;;;5053333;28;20213;-54
2022/09/08 00:51:22;;;;;;;5.30;4.17;;;17.30;1.00;;;;;;5053004;28;20235;-56
2022/09/08 00:53:49;;;;;;;4.60;4.07;;;17.30;1.00;;;;;;5053106;28;20212;-55
2022/09/08 00:56:17;;;;;;;4.43;4.03;;;17.30;1.00;;;;;;5052743;28;20230;-55
2022/09/08 00:58:45;;;;;;;4.77;3.93;;;17.30;1.00;;;;;;5053036;28;20205;-54
2022/09/08 01:01:12;;;;;;;4.77;3.73;;;17.30;1.00;;;;;;5052740;28;20222;-54
2022/09/08 01:03:41;;;;;;;7.57;4.40;;;17.30;1.00;;;;;;5053072;28;20236;-56
2022/09/08 01:06:21;;;;;;;6.00;3.53;;;17.30;1.00;;;;;;5052387;28;20320;-54
2022/09/08 01:14:45;;;;;;;4.43;3.67;;;17.30;1.00;;;;;;5052420;28;20580;-54
2022/09/08 01:17:16;;;;;;;4.83;3.80;;;17.30;1.00;;;;;;5052041;28;20261;-53
2022/09/08 01:19:46;;;;;;;5.37;3.57;;;17.30;1.00;;;;;;5052498;28;20209;-56
2022/09/08 01:22:26;;;;;;;3.90;3.10;;;17.30;1.00;;;;;;5052432;28;20319;-56
2022/09/08 01:24:58;;;;;;;5.20;3.53;;;17.40;1.00;;;;;;5052370;28;20221;-49
2022/09/08 01:27:29;;;;;;;5.47;3.70;;;17.30;1.00;;;;;;5052305;28;20275;-53
2022/09/08 01:30:01;;;;;;;6.97;3.70;;;17.40;1.00;;;;;;5052497;28;20205;-52
2022/09/08 01:32:29;;;;;;;4.10;3.40;;;17.40;1.00;;;;;;5052201;28;20627;-55
2022/09/08 01:34:56;;;;;;;5.50;3.37;;;17.40;1.00;;;;;;5052166;28;20774;-54
2022/09/08 01:37:23;;;;;;;5.93;3.30;;;17.40;1.00;;;;;;5052222;28;20253;-55
2022/09/08 01:39:50;;;;;;;5.50;3.37;;;17.40;1.00;;;;;;5052124;28;20217;-53
2022/09/08 01:42:16;;;;;;;6.20;3.43;;;17.40;1.00;;;;;;5052328;28;20204;-52
2022/09/08 01:44:45;;;;;;;3.80;3.27;;;17.40;1.00;;;;;;5051952;28;20233;-54
2022/09/08 01:47:12;;;;;;;4.37;3.10;;;17.40;1.00;;;;;;5051838;28;20291;-53
2022/09/08 01:49:39;;;;;;;4.03;3.00;;;17.40;1.00;;;;;;5052074;28;20581;-56
2022/09/08 01:52:06;;;;;;;5.23;3.57;;;17.40;1.00;;;;;;5051972;28;20668;-55
2022/09/08 01:54:34;;;;;;;5.33;3.13;;;17.40;1.00;;;;;;5052036;28;20225;-54
2022/09/08 01:57:00;;;;;;;4.03;3.30;;;17.40;1.00;;;;;;5051719;28;20205;-55
2022/09/08 01:59:27;;;;;;;4.43;3.53;;;17.40;1.00;;;;;;5051991;28;20206;-52
2022/09/08 02:01:55;;;;;;;7.27;3.70;;;17.40;1.00;;;;;;5051833;28;20221;-57
2022/09/08 02:04:22;;;;;;;4.97;3.63;;;17.40;1.00;;;;;;5051765;28;20663;-50
2022/09/08 02:06:48;;;;;;;7.00;3.13;;;17.30;1.00;;;;;;5051548;28;20213;-51
2022/09/08 02:09:15;;;;;;;5.70;3.33;;;17.40;1.00;;;;;;5051903;28;20259;-54
2022/09/08 02:11:43;;;;;;;5.90;3.27;;;17.30;1.00;;;;;;5051793;28;20258;-53
2022/09/08 02:14:10;;;;;;;3.50;3.20;;;17.30;1.00;;;;;;5051704;28;20350;-54
2022/09/08 02:16:36;;;;;;;4.23;2.90;;;17.30;1.00;;;;;;5051366;28;20202;-54
2022/09/08 02:19:04;;;;;;;3.33;3.00;;;17.30;1.00;;;;;;5052001;28;20259;-49
2022/09/08 02:21:31;;;;;;;5.17;3.37;;;17.30;1.00;;;;;;5051582;28;20773;-50
2022/09/08 02:23:59;;;;;;;6.63;3.30;;;17.30;1.00;;;;;;5051779;28;20624;-49
2022/09/08 02:26:28;;;;;;;8.60;3.20;;;17.30;1.00;;;;;;5051582;28;20278;-48
2022/09/08 02:28:55;;;;;;;6.30;3.40;;;17.40;1.00;;;;;;5051718;28;20272;-52
2022/09/08 02:31:23;;;;;;;5.93;3.57;;;17.40;1.00;;;;;;5055456;28;20576;-50
2022/09/08 02:33:50;;;;;;;4.77;3.23;;;17.40;1.00;;;;;;5055949;28;20209;-52
2022/09/08 02:36:18;;;;;;;5.77;3.10;;;17.40;1.00;;;;;;5055283;28;20275;-53
2022/09/08 02:38:49;;;;;;;5.70;3.07;;;17.40;1.00;;;;;;5055459;28;20201;-54
2022/09/08 02:41:17;;;;;;;3.37;2.83;;;17.40;1.00;;;;;;5055460;28;20229;-50
2022/09/08 02:43:43;;;;;;;4.03;3.10;;;17.40;1.00;;;;;;5055263;28;20202;-50
2022/09/08 02:46:11;;;;;;;3.40;3.10;;;17.40;1.00;;;;;;5055864;28;20255;-55
2022/09/08 02:48:38;;;;;;;4.73;3.20;;;17.40;1.00;;;;;;5055939;28;20210;-55
2022/09/08 02:51:07;;;;;;;3.60;3.10;;;17.40;1.00;;;;;;5055725;28;20255;-55
2022/09/08 02:53:36;;;;;;;8.40;3.60;;;17.40;1.00;;;;;;5055991;28;20228;-52
2022/09/08 02:56:04;;;;;;;6.30;3.23;;;17.50;1.00;;;;;;5055454;28;20283;-51
2022/09/08 02:58:30;;;;;;;4.97;3.00;;;17.40;1.00;;;;;;5055601;28;20210;-51
2022/09/08 03:00:58;;;;;;;5.13;3.27;;;17.40;1.00;;;;;;5055453;28;20295;-55
2022/09/08 03:03:25;;;;;;;4.13;3.00;;;17.40;1.00;;;;;;5055944;28;20206;-54
2022/09/08 03:05:52;;;;;;;4.20;2.70;;;17.40;1.00;;;;;;5055166;28;20233;-55
2022/09/08 03:08:20;;;;;;;4.17;2.93;;;17.40;1.00;;;;;;5054983;28;20205;-56
2022/09/08 03:10:49;;;;;;;4.07;3.00;;;17.40;1.00;;;;;;5054833;28;20259;-55
2022/09/08 03:13:16;;;;;;;3.37;2.63;;;17.40;1.00;;;;;;5055232;28;20201;-52
2022/09/08 03:15:43;;;;;;;4.17;2.93;;;17.50;1.00;;;;;;5054658;28;20230;-55
2022/09/08 03:18:10;;;;;;;4.07;2.87;;;17.50;1.00;;;;;;5054603;28;20571;-53
2022/09/08 03:20:38;;;;;;;4.40;2.70;;;17.50;1.00;;;;;;5054891;28;20779;-55
2022/09/08 03:23:05;;;;;;;5.80;3.60;;;17.50;1.00;;;;;;5054568;28;20209;-52
2022/09/08 03:25:36;;;;;;;6.60;3.10;;;17.50;1.00;;;;;;5054588;28;20279;-52
2022/09/08 03:28:04;;;;;;;4.00;3.00;;;17.40;1.00;;;;;;5054587;28;20205;-53
2022/09/08 03:30:31;;;;;;;5.70;3.07;;;17.40;1.00;;;;;;5054787;28;20639;-53
2022/09/08 03:32:58;;;;;;;5.43;3.20;;;17.40;1.00;;;;;;5054688;28;20213;-54
2022/09/08 03:35:24;;;;;;;8.27;3.30;;;17.50;1.00;;;;;;5054692;28;20221;-51
2022/09/08 03:37:51;;;;;;;4.53;2.57;;;17.50;1.00;;;;;;5054176;28;20286;-54
2022/09/08 03:40:18;;;;;;;5.97;2.90;;;17.40;1.00;;;;;;5053939;28;20205;-53
2022/09/08 03:42:45;;;;;;;4.80;3.00;;;17.40;1.00;;;;;;5054281;28;20225;-55
2022/09/08 03:45:17;;;;;;;8.03;2.90;;;17.40;1.00;;;;;;5054155;28;20777;-55
2022/09/08 03:47:44;;;;;;;5.57;2.70;;;17.40;1.00;;;;;;5054353;28;20224;-53
2022/09/08 03:50:12;;;;;;;4.30;2.67;;;17.40;1.00;;;;;;5053920;28;20561;-55
2022/09/08 03:52:39;;;;;;;3.00;2.50;;;17.40;1.00;;;;;;5053995;28;20210;-56
2022/09/08 03:55:08;;;;;;;5.70;3.70;;;17.40;1.00;;;;;;5054296;28;20230;-53
2022/09/08 03:57:35;;;;;;;5.17;3.67;;;17.40;1.00;;;;;;5053688;28;20864;-53
2022/09/08 04:00:03;;;;;;;3.27;2.53;;;17.40;1.00;;;;;;5054077;28;20206;-52
2022/09/08 04:02:32;;;;;;;5.97;2.83;;;17.40;1.00;;;;;;5053878;28;20233;-56
2022/09/08 04:04:59;;;;;;;2.80;2.33;;;17.40;1.00;;;;;;5053783;28;20233;-53
2022/09/08 04:07:29;;;;;;;4.40;2.27;;;17.50;1.00;;;;;;5054025;28;20253;-54
2022/09/08 04:09:57;;;;;;;8.10;2.90;;;17.50;99.90;;;;;;5053986;28;20240;-54
2022/09/08 04:12:25;;;;;;;4.37;2.67;;;17.60;1.00;;;;;;5053766;28;20201;-52
2022/09/08 04:14:51;;;;;;;4.43;2.20;;;17.60;99.90;;;;;;5053700;28;20238;-51
2022/09/08 04:17:20;;;;;;;6.30;2.30;;;17.70;99.90;;;;;;5053366;28;20264;-54
2022/09/08 04:19:50;;;;;;;3.70;2.20;;;17.70;99.90;;;;;;5053550;28;20206;-55
2022/09/08 04:22:17;;;;;;;3.93;2.30;;;17.70;99.90;;;;;;5053412;28;20718;-51
2022/09/08 04:24:44;;;;;;;3.23;2.10;;;17.80;99.90;;;;;;5053645;28;20283;-53
2022/09/08 04:27:11;;;;;;;2.80;2.07;;;17.70;99.90;;;;;;5053574;28;20205;-49
2022/09/08 04:29:38;;;;;;;4.20;2.10;;;17.70;99.90;;;;;;5053365;28;20232;-55
2022/09/08 04:32:05;;;;;;;5.63;2.40;;;17.70;99.90;;;;;;5053302;28;20237;-54
2022/09/08 04:34:31;;;;;;;3.60;2.10;;;17.70;99.90;;;;;;5053671;28;20225;-53
2022/09/08 04:36:59;;;;;;;5.47;2.13;;;17.70;99.90;;;;;;5053112;28;20205;-53
2022/09/08 04:39:26;;;;;;;4.47;2.33;;;17.70;99.90;;;;;;5053390;28;20637;-56
2022/09/08 04:41:53;;;;;;;3.47;2.23;;;17.60;1.00;;;;;;5053249;28;20235;-54
2022/09/08 04:44:20;;;;;;;3.60;2.67;;;17.60;1.00;;;;;;5053106;28;20226;-56
2022/09/08 04:46:47;;;;;;;3.70;2.50;;;17.60;1.00;;;;;;5050309;28;20255;-57
2022/09/08 04:49:14;;;;;;;5.73;3.03;;;17.60;1.00;;;;;;5051840;28;20204;-57
2022/09/08 04:51:40;;;;;;;5.33;2.80;;;17.50;1.00;;;;;;5052649;28;20207;-57
2022/09/08 04:54:10;;;;;;;4.93;2.87;;;17.40;1.00;;;;;;5051928;28;20210;-56
2022/09/08 04:56:37;;;;;;;5.13;3.57;;;17.30;1.10;;;;;;5052636;28;20251;-57
2022/09/08 04:59:05;;;;;;;7.67;3.03;;;17.30;28.10;;;;;;5052140;28;20255;-57
2022/09/08 05:01:34;;;;;;;7.10;3.00;;;17.20;88.40;;;;;;5052778;28;20260;-57
2022/09/08 05:04:02;;;;;;;6.70;3.20;;;17.00;99.90;;;;;;5052571;28;20292;-57
2022/09/08 05:06:30;;;;;;;4.73;3.53;;;16.90;99.90;;;;;;5052248;28;20217;-57
2022/09/08 05:08:58;;;;;;;6.77;3.67;;;16.80;99.90;;;;;;5052518;28;20186;-57
2022/09/08 05:11:28;;;;;;;5.77;3.77;;;16.70;99.90;;;;;;5052525;28;20580;-58
2022/09/08 05:13:56;;;;;;;7.07;3.57;;;16.60;99.90;;;;;;5051933;28;20210;-57
2022/09/08 05:16:24;;;;;;;5.47;3.80;;;16.50;99.90;;;;;;5052459;28;20235;-56
2022/09/08 05:18:53;;;;;;;4.97;3.80;;;16.50;99.90;;;;;;5052067;28;20288;-57
2022/09/08 05:21:20;;;;;;;5.70;4.10;;;16.40;99.90;;;;;;5052085;28;20283;-59
2022/09/08 05:23:49;;;;;;;6.23;4.20;;;16.30;99.90;;;;;;5051710;28;20205;-57
2022/09/08 05:26:17;;;;;;;4.23;3.70;;;16.30;99.90;;;;;;5052040;28;20229;-57
2022/09/08 05:28:46;;;;;;;5.23;4.10;;;16.30;99.90;;;;;;5052748;28;20206;-56
2022/09/08 05:31:15;;;;;;;6.50;4.23;;;16.30;99.90;;;;;;5052483;28;20256;-56
2022/09/08 05:33:42;;;;;;;6.10;3.57;;;16.30;99.90;;;;;;5052564;28;20741;-54
2022/09/08 05:36:11;;;;;;;6.73;4.03;;;16.30;99.90;;;;;;5051366;28;20284;-61
2022/09/08 05:38:37;;;;;;;8.07;4.90;;;16.30;99.90;;;;;;5051987;28;20209;-61
2022/09/08 05:41:04;;;;;;;6.27;4.20;;;16.20;99.90;;;;;;5051458;28;20201;-60
2022/09/08 05:43:31;;;;;;;7.57;4.10;;;16.20;99.90;;;;;;5051972;28;20205;-60
2022/09/08 05:46:00;;;;;;;6.53;4.63;;;16.20;99.90;;;;;;5051319;28;20252;-60
2022/09/08 05:48:27;;;;;;;8.10;4.80;;;16.20;99.90;;;;;;5051914;28;20289;-61
2022/09/08 05:50:54;;;;;;;11.60;5.10;;;16.20;99.90;;;;;;5051321;28;20576;-62
2022/09/08 05:53:21;;;;;;;8.70;5.03;;;16.20;99.90;;;;;;5051449;28;20263;-61
2022/09/08 05:55:56;;;;;;;8.20;5.00;;;16.10;99.90;;;;;;5051535;28;20648;-58
2022/09/08 05:58:23;;;;;;;7.17;5.40;;;16.10;99.90;;;;;;5051732;28;20209;-59
2022/09/08 06:00:55;;;;;;;10.30;4.83;;;16.20;99.90;;;;;;5051476;28;20260;-59
2022/09/08 06:03:23;;;;;;;6.90;4.67;;;16.20;99.90;;;;;;5051251;28;20225;-56
2022/09/08 06:05:49;;;;;;;7.03;4.70;;;16.20;99.90;;;;;;5050922;28;20299;-57
2022/09/08 06:08:16;;;;;;;5.90;5.10;;;16.30;99.90;;;;;;5051415;28;20239;-58
2022/09/08 06:10:43;;;;;;;6.07;5.00;;;16.20;99.90;;;;;;5051679;28;20271;-61
2022/09/08 06:13:09;;;;;;;7.53;5.07;;;16.20;99.90;;;;;;5051224;28;20224;-61
2022/09/08 06:15:36;;;;;;;6.57;4.60;;;16.20;99.90;;;;;;5050922;28;20230;-62
2022/09/08 06:18:04;;;;;;;8.87;5.17;;;16.20;99.90;;;;;;5050970;28;20214;-57
2022/09/08 06:20:32;;;;;;;7.90;5.23;;;16.20;99.90;;;;;;5051476;28;20236;-50
2022/09/08 06:22:59;;;;;;;7.07;4.90;;;16.10;99.90;;;;;;5050775;28;20707;-55
2022/09/08 06:25:27;;;;;;;10.53;6.13;;;16.10;99.90;;;;;;5051476;28;20279;-51
2022/09/08 06:28:01;;;;;;;8.93;5.50;;;16.10;99.90;;;;;;5051140;28;20241;-59
2022/09/08 06:30:27;;;;;;;8.10;5.43;;;16.10;99.90;;;;;;5051689;28;20255;-62
2022/09/08 06:32:59;;;;;;;7.30;5.30;;;16.20;99.90;;;;;;5040633;28;20201;-59
2022/09/08 06:35:30;;;;;;;7.30;6.00;;;16.10;99.90;;;;;;5050313;28;20283;-59
2022/09/08 06:38:03;;;;;;;10.10;6.97;;;16.20;99.90;;;;;;5050312;28;20202;-60
2022/09/08 06:40:35;;;;;;;10.67;5.93;;;16.30;99.90;;;;;;5051100;28;20205;-55
2022/09/08 06:43:07;;;;;;;9.07;6.20;;;16.40;99.90;;;;;;5050465;28;20217;-56
2022/09/08 06:45:36;;;;;;;8.17;5.47;;;16.40;99.90;;;;;;5050369;28;20225;-55
2022/09/08 06:48:25;;;;;;;15.07;6.20;;;16.40;99.90;;;;;;5049119;28;20631;-55
2022/09/08 06:51:06;;;;;;;9.00;6.20;;;16.40;99.90;;;;;;5050615;28;20208;-60
2022/09/08 06:53:39;;;;;;;10.17;6.37;;;16.50;99.90;;;;;;5050555;28;20213;-60
2022/09/08 06:56:20;;;;;;;10.90;6.57;;;16.40;99.90;;;;;;5049893;28;20719;-59
2022/09/08 06:58:47;;;;;;;14.17;7.27;;;16.40;99.90;;;;;;5051110;28;20236;-67
2022/09/08 07:01:19;;;;;;;10.27;6.53;;;16.50;99.90;;;;;;5050768;28;20209;-57
2022/09/08 07:04:03;;;;;;;10.57;6.77;;;16.50;99.90;;;;;;5041127;28;20271;-57
2022/09/08 07:06:34;;;;;;;11.27;7.03;;;16.50;99.90;;;;;;5050550;28;20272;-57
2022/09/08 07:09:14;;;;;;;9.97;6.87;;;16.40;99.90;;;;;;5051048;28;20191;-57
2022/09/08 07:11:49;;;;;;;9.27;6.60;;;16.40;99.90;;;;;;5050591;28;20258;-57
2022/09/08 07:14:44;;;;;;;11.43;6.53;;;16.30;99.90;;;;;;5050289;28;20229;-56
2022/09/08 07:17:18;;;;;;;8.30;6.57;;;16.30;99.90;;;;;;5052335;28;20254;-60
2022/09/08 07:19:49;;;;;;;10.63;6.73;;;16.40;99.90;;;;;;5054604;28;20250;-60
2022/09/08 07:22:24;;;;;;;16.40;7.70;;;16.40;99.90;;;;;;5053977;28;20316;-61
2022/09/08 07:24:54;;;;;;;11.00;7.57;;;16.30;99.90;;;;;;5053776;28;20225;-58
2022/09/08 07:27:21;;;;;;;10.90;8.20;;;16.40;99.90;;;;;;5053373;28;20217;-59
2022/09/08 07:29:51;;;;;;;14.17;8.57;;;16.30;99.90;;;;;;5054204;28;20209;-58
2022/09/08 07:32:21;;;;;;;11.97;7.97;;;16.20;99.90;;;;;;5053651;28;20212;-57
2022/09/08 07:34:53;;;;;;;12.43;8.50;;;16.30;99.90;;;;;;5053966;28;20225;-56
2022/09/08 07:37:24;;;;;;;13.33;8.37;;;16.30;99.90;;;;;;5053708;28;20279;-55
2022/09/08 07:39:59;;;;;;;14.73;8.43;;;16.40;99.90;;;;;;5053594;28;20287;-59
2022/09/08 07:42:26;;;;;;;15.00;7.77;;;16.40;99.90;;;;;;5053902;28;20262;-58
2022/09/08 07:44:57;;;;;;;11.97;9.03;;;16.40;99.90;;;;;;5053225;28;20230;-58
2022/09/08 07:47:37;;;;;;;13.73;8.43;;;16.40;99.90;;;;;;5053425;28;20259;-57
2022/09/08 07:50:12;;;;;;;11.63;8.40;;;16.40;99.90;;;;;;5044936;28;20213;-59
2022/09/08 07:52:46;;;;;;;12.50;9.13;;;16.50;99.90;;;;;;5033069;28;20252;-57
2022/09/08 07:55:21;;;;;;;13.70;9.13;;;16.50;99.90;;;;;;5035346;28;20230;-58
2022/09/08 07:57:58;;;;;;;16.00;9.00;;;16.50;99.90;;;;;;5053321;28;20202;-57
2022/09/08 08:00:32;;;;;;;12.50;8.80;;;16.50;99.90;;;;;;5052737;28;20260;-58
2022/09/08 08:03:20;;;;;;;12.87;9.13;;;16.30;99.90;;;;;;5053472;28;20232;-59
2022/09/08 08:05:51;;;;;;;14.83;7.30;;;16.20;99.90;;;;;;5052667;28;20233;-59
2022/09/08 08:08:25;;;;;;;12.33;6.67;;;16.20;99.90;;;;;;5053168;28;20201;-56
2022/09/08 08:11:03;;;;;;;6.67;4.70;;;16.10;99.90;;;;;;5053003;28;20198;-60
2022/09/08 08:13:43;;;;;;;8.40;5.20;;;16.00;99.90;;;;;;5053236;28;20202;-59
2022/09/08 08:16:13;;;;;;;7.07;4.80;;;16.00;99.90;;;;;;5052608;28;20236;-59
2022/09/08 08:18:54;;;;;;;9.50;4.63;;;16.00;99.90;;;;;;5053128;28;20251;-59
2022/09/08 08:21:25;;;;;;;8.10;5.00;;;16.00;99.90;;;;;;5053026;28;20650;-60
2022/09/08 08:24:17;;;;;;;7.03;4.83;;;16.00;99.90;;;;;;5052377;28;20221;-55
2022/09/08 08:26:53;;;;;;;5.97;4.97;;;16.00;99.90;;;;;;5049513;28;20966;-55
2022/09/08 08:29:49;;;;;;;10.90;5.17;;;16.00;99.90;;;;;;5052150;28;20251;-56
2022/09/08 08:32:20;;;;;;;10.37;5.57;;;16.10;99.90;;;;;;5052626;28;20694;-58
2022/09/08 08:34:54;;;;;;;9.07;5.50;;;16.20;99.90;;;;;;5052679;28;20225;-57
2022/09/08 08:37:25;;;;;;;9.53;5.93;;;16.10;99.90;;;;;;5052642;28;20630;-57
2022/09/08 08:39:53;;;;;;;9.10;6.47;;;16.20;99.90;;;;;;5052557;28;20210;-59
2022/09/08 08:42:37;;;;;;;10.63;6.20;;;16.30;99.90;;;;;;5052406;28;20233;-60
2022/09/08 08:45:22;;;;;;;9.47;6.20;;;16.50;99.90;;;;;;5052280;28;20222;-57
2022/09/08 08:47:59;;;;;;;8.17;5.73;;;16.60;99.90;;;;;;5052556;28;20206;-60
2022/09/08 08:51:00;;;;;;;6.60;5.40;;;16.60;99.90;;;;;;5051936;28;20766;-56
2022/09/08 08:53:57;;;;;;;9.67;5.67;;;16.50;99.90;;;;;;5044676;28;20271;-60
2022/09/08 08:56:31;;;;;;;11.30;6.53;;;16.60;99.90;;;;;;5052344;28;20703;-58
2022/09/08 08:59:35;;;;;;;9.77;6.40;;;16.70;99.90;;;;;;5052304;28;20736;-56
2022/09/08 09:02:18;;;;;;;9.80;6.20;;;16.70;99.90;;;;;;5052167;28;20286;-60
2022/09/08 09:05:02;;;;;;;12.10;7.00;;;16.70;99.90;;;;;;5051952;28;20232;-59
2022/09/08 09:08:04;;;;;;;9.03;5.57;;;16.80;99.90;;;;;;5051973;28;20225;-59
2022/09/08 09:10:49;;;;;;;9.07;6.20;;;16.80;99.90;;;;;;5038579;28;20258;-59
2022/09/08 09:13:47;;;;;;;8.87;5.57;;;16.80;99.90;;;;;;5051980;28;20209;-59
2022/09/08 09:16:43;;;;;;;11.77;6.13;;;16.90;99.90;;;;;;5049404;28;20237;-58
2022/09/08 09:19:28;;;;;;;9.03;5.40;;;17.00;99.90;;;;;;5052283;28;20628;-59
2022/09/08 09:22:03;;;;;;;7.90;5.80;;;17.00;99.90;;;;;;5051584;28;20291;-60
2022/09/08 09:24:46;;;;;;;7.63;4.90;;;17.00;99.90;;;;;;5051636;28;20232;-61
2022/09/08 09:27:17;;;;;;;10.83;5.50;;;17.00;99.90;;;;;;5051418;28;20259;-62
2022/09/08 09:29:44;;;;;;;6.73;4.73;;;17.10;99.90;;;;;;5050977;28;20201;-56
2022/09/08 09:32:35;;;;;;;5.97;4.37;;;17.20;99.90;;;;;;5042380;28;20209;-57
2022/09/08 09:35:38;;;;;;;8.03;4.00;;;17.10;99.90;;;;;;5051700;28;20280;-53
2022/09/08 09:38:23;;;;;;;6.90;3.63;;;17.20;99.90;;;;;;5050836;28;20706;-57
2022/09/08 09:41:12;;;;;;;6.47;3.10;;;17.40;99.90;;;;;;5051670;28;20611;-59
2022/09/08 09:43:53;;;;;;;4.93;3.03;;;17.40;99.90;;;;;;5051218;28;20229;-61
2022/09/08 09:46:47;;;;;;;5.63;2.77;;;17.40;99.90;;;;;;5051189;28;20561;-59
2022/09/08 09:49:48;;;;;;;4.53;2.73;;;17.60;99.90;;;;;;5039051;28;20210;-59
2022/09/08 09:52:21;;;;;;;2.90;2.60;;;17.60;99.90;;;;;;5041960;28;20247;-58
2022/09/08 09:55:00;;;;;;;3.90;2.80;;;17.60;99.90;;;;;;5050797;28;20244;-57
2022/09/08 09:57:53;;;;;;;3.60;2.70;;;17.70;99.90;;;;;;5051183;28;20899;-55
2022/09/08 10:00:23;;;;;;;4.40;2.83;;;17.80;99.90;;;;;;5050991;28;20761;-60
2022/09/08 10:03:22;;;;;;;4.53;2.93;;;17.70;99.90;;;;;;5051324;28;20727;-63
2022/09/08 10:06:14;;;;;;;3.40;2.50;;;17.80;99.90;;;;;;5050621;28;20233;-56
2022/09/08 10:09:28;;;;;;;6.73;2.87;;;17.80;99.90;;;;;;5048433;28;20620;-59
2022/09/08 10:12:35;;;;;;;5.77;2.83;;;17.90;99.90;;;;;;5050930;28;20636;-58
2022/09/08 10:15:31;;;;;;;5.10;2.80;;;18.00;99.90;;;;;;5051127;28;20264;-62
2022/09/08 10:18:43;;;;;;;3.83;2.67;;;18.10;99.90;;;;;;5050410;28;20255;-59
2022/09/08 10:21:49;;;;;;;3.17;2.70;;;18.00;99.90;;;;;;5050941;28;20205;-59
2022/09/08 10:24:46;;;;;;;5.40;2.30;;;18.10;99.90;;;;;;5050547;28;20283;-58
2022/09/08 10:27:39;;;;;;;2.90;2.53;;;18.20;99.90;;;;;;5050691;28;20259;-58
2022/09/08 10:30:59;;;;;;;3.43;2.60;;;18.30;99.90;;;;;;5051153;28;20209;-55
2022/09/08 10:33:43;;;;;;;7.23;3.03;;;18.40;99.90;;;;;;5045212;28;20263;-51
2022/09/08 10:36:11;;;;;;;7.47;3.03;;;18.60;99.90;;;;;;5050417;28;20264;-54
2022/09/08 10:38:51;;;;;;;2.10;1.90;;;18.80;99.90;;;;;;5050769;28;20205;-54
2022/09/08 10:41:42;;;;;;;6.13;2.80;;;18.80;81.80;;;;;;5051083;28;20209;-62
2022/09/08 10:44:15;;;;;;;5.27;2.60;;;18.80;51.50;;;;;;5048694;28;20295;-64
2022/09/08 10:47:02;;;;;;;4.67;2.53;;;18.80;4.80;;;;;;5051001;28;20205;-64
2022/09/08 10:49:55;;;;;;;2.70;1.87;;;19.00;25.20;;;;;;5051113;28;20209;-63
2022/09/08 10:52:32;;;;;;;6.07;1.77;;;19.10;1.00;;;;;;5062081;28;20251;-64
2022/09/08 10:55:30;;;;;;;1.80;1.60;;;19.10;1.00;;;;;;5065069;28;20271;-63
2022/09/08 10:58:22;;;;;;;2.33;1.40;;;19.00;1.00;;;;;;5057714;28;20255;-63
2022/09/08 11:01:00;;;;;;;4.03;1.70;;;18.80;1.00;;;;;;5054396;28;20696;-64
2022/09/08 11:03:52;;;;;;;4.07;1.90;;;18.70;1.00;;;;;;5054820;28;20214;-64
2022/09/08 11:06:29;;;;;;;4.33;2.00;;;18.70;1.00;;;;;;5053653;28;20283;-63
2022/09/08 11:09:11;;;;;;;2.70;1.73;;;18.60;1.00;;;;;;5054810;28;20625;-64
2022/09/08 11:12:23;;;;;;;5.50;1.53;;;18.70;1.00;;;;;;5054081;28;20765;-63
2022/09/08 11:15:18;;;;;;;2.60;1.83;;;18.70;1.00;;;;;;5054036;28;20285;-63
2022/09/08 11:17:47;;;;;;;4.40;1.53;;;18.50;99.90;;;;;;5053753;28;20624;-63
2022/09/08 11:20:23;;;;;;;3.67;1.50;;;18.40;1.00;;;;;;5054060;28;20690;-62
2022/09/08 11:23:07;;;;;;;2.70;1.20;;;18.50;1.00;;;;;;5053801;28;20213;-63
2022/09/08 11:25:52;;;;;;;3.50;1.27;;;18.80;1.00;;;;;;5034043;28;20793;-63
2022/09/08 11:28:36;;;;;;;5.83;1.20;;;19.00;1.00;;;;;;5033771;28;20210;-63
2022/09/08 11:31:19;;;;;;;3.07;1.30;;;19.10;99.90;;;;;;5033861;28;20202;-63
2022/09/08 11:34:21;;;;;;;3.50;0.80;;;19.20;99.90;;;;;;5033971;28;20267;-64
2022/09/08 11:37:10;;;;;;;2.27;0.93;;;19.30;99.90;;;;;;5052088;28;20202;-63
2022/09/08 11:39:56;;;;;;;4.27;1.20;;;19.40;21.80;;;;;;5053541;28;20256;-65
2022/09/08 11:42:57;;;;;;;1.97;1.00;;;19.50;99.90;;;;;;5053873;28;20205;-67
2022/09/08 11:45:36;;;;;;;2.03;0.83;;;19.70;99.90;;;;;;5039023;28;20570;-65
2022/09/08 11:48:30;;;;;;;1.80;1.00;;;19.80;1.00;;;;;;5053764;28;20597;-62
2022/09/08 11:51:11;;;;;;;2.43;1.00;;;19.90;99.90;;;;;;5053497;28;20209;-63
2022/09/08 11:53:53;;;;;;;2.20;0.80;;;19.90;99.90;;;;;;5053784;28;20231;-62
2022/09/08 11:56:50;;;;;;;2.73;1.00;;;20.10;1.00;;;;;;5053174;28;20205;-63
2022/09/08 11:59:37;;;;;;;1.40;0.70;;;20.30;99.90;;;;;;5040779;28;20241;-63
2022/09/08 12:02:25;;;;;;;1.80;0.80;;;20.40;99.90;;;;;;5052757;28;20205;-61
2022/09/08 12:05:07;;;;;;;5.83;1.03;;;20.50;99.90;;;;;;5052937;28;20283;-62
2022/09/08 12:07:50;;;;;;;4.33;0.70;;;20.50;99.90;;;;;;5053022;28;20205;-63
2022/09/08 12:10:39;;;;;;;2.67;0.67;;;20.50;1.00;;;;;;5053383;28;20209;-65
2022/09/08 12:13:15;;;;;;;2.07;0.60;;;20.40;99.90;;;;;;5053712;28;20210;-66
2022/09/08 12:16:00;;;;;;;2.37;0.67;;;20.30;1.00;;;;;;5053267;28;20228;-64
2022/09/08 12:18:41;;;;;;;2.50;0.70;;;19.90;1.00;;;;;;5053204;28;20209;-63
2022/09/08 12:21:30;;;;;;;3.53;0.70;;;19.90;1.00;;;;;;5053093;28;20213;-67
2022/09/08 12:24:09;;;;;;;2.77;0.53;;;20.10;1.00;;;;;;5052782;28;20233;-64
2022/09/08 12:26:45;;;;;;;1.80;0.50;;;20.30;1.00;;;;;;5033321;28;20214;-62
2022/09/08 12:29:37;;;;;;;2.03;0.60;;;20.40;99.90;;;;;;5032915;28;20267;-63
2022/09/08 12:32:25;;;;;;;2.40;0.57;;;20.40;99.90;;;;;;5050253;28;20209;-63
2022/09/08 12:35:28;;;;;;;4.90;0.90;;;20.50;99.90;;;;;;5052608;28;20295;-62
2022/09/08 12:38:01;;;;;;;1.30;0.60;;;20.70;99.90;;;;;;5039146;28;20267;-64
2022/09/08 12:41:02;;;;;;;1.57;0.40;;;20.90;99.90;;;;;;5052823;28;20259;-64
2022/09/08 12:43:39;;;;;;;1.80;0.57;;;20.80;99.90;;;;;;5040544;28;20278;-63
2022/09/08 12:46:29;;;;;;;2.87;0.80;;;20.90;99.90;;;;;;5051876;28;20229;-63
2022/09/08 12:49:13;;;;;;;1.50;0.90;;;20.70;99.90;;;;;;5050094;28;20363;-65
2022/09/08 12:51:39;;;;;;;2.73;0.80;;;20.50;99.90;;;;;;5049353;28;20205;-64
2022/09/08 12:54:33;;;;;;;3.43;0.60;;;20.20;99.90;;;;;;5052567;28;20206;-64
2022/09/08 12:57:30;;;;;;;2.60;0.70;;;20.00;99.90;;;;;;5052447;28;20296;-63
2022/09/08 13:00:06;;;;;;;2.53;0.67;;;19.80;99.90;;;;;;5042886;28;20205;-66
2022/09/08 13:03:18;;;;;;;1.70;0.70;;;20.10;99.90;;;;;;5052535;28;20205;-65
2022/09/08 13:06:18;;;;;;;2.37;0.77;;;20.50;99.90;;;;;;5038595;28;20241;-66
2022/09/08 13:08:56;;;;;;;1.90;0.70;;;20.40;99.90;;;;;;5052439;28;20251;-65
2022/09/08 13:11:38;;;;;;;2.23;0.73;;;20.40;99.90;;;;;;5051710;28;20255;-66
2022/09/08 13:14:07;;;;;;;1.50;0.60;;;20.40;99.90;;;;;;5051321;28;20608;-66
2022/09/08 13:16:46;;;;;;;1.13;0.60;;;20.50;99.90;;;;;;5051339;28;20205;-64
2022/09/08 13:19:25;;;;;;;3.20;1.03;;;20.50;99.90;;;;;;5051981;28;20248;-66
2022/09/08 13:22:31;;;;;;;2.33;0.70;;;20.70;99.90;;;;;;5051852;28;20205;-64
2022/09/08 13:25:08;;;;;;;2.23;0.60;;;20.90;99.90;;;;;;5029318;28;20704;-64
2022/09/08 13:27:46;;;;;;;3.03;0.67;;;21.20;99.90;;;;;;5048994;28;20209;-65
2022/09/08 13:30:17;;;;;;;3.10;1.07;;;21.20;99.90;;;;;;5051951;28;20209;-67
2022/09/08 13:33:30;;;;;;;1.70;0.50;;;21.00;99.90;;;;;;5051450;28;20665;-67
2022/09/08 13:36:51;;;;;;;1.33;0.80;;;20.60;99.90;;;;;;5028753;28;20319;-68
2022/09/08 13:39:49;;;;;;;1.87;0.70;;;20.30;99.90;;;;;;5029136;28;20218;-67